< Cyclone 198305 1983 Season Cyclone 198307 >
Cyclone 198306 (NAOMI)
General InformationTrack Information on Google MapsList of All Images || ResourceGoogle EarthGE AnimationAtom FeedGeoJSON
Detalied Best Track (Time Zone = UTC)
Year Month Day Hour Lat. Long. Pressure (hPa) Wind (kt) Class Image Chart
1983 4 21 00 -13.6 81.5 1005 0 0 Image --
1983 4 21 06 -13.2 81.4 1003 0 0 Image --
1983 4 21 12 -12.7 81.4 1001 0 0 Image --
1983 4 21 18 -12.2 81.3 998 0 0 Image --
1983 4 22 00 -11.5 81.2 996 0 0 Image --
1983 4 22 06 -10.9 81.1 994 0 0 Image --
1983 4 22 12 -10.4 81.1 992 0 0 Image --
1983 4 22 18 -10.0 81.2 991 0 0 Image --
1983 4 23 00 -9.7 81.3 985 0 0 Image --
1983 4 23 06 -9.3 81.6 980 0 0 Image --
1983 4 23 12 -9.3 82.1 977 0 0 Image --
1983 4 23 18 -9.3 82.2 974 0 0 Image --
1983 4 24 00 -9.4 82.4 970 0 0 Image --
1983 4 24 06 -9.5 82.6 968 0 0 Image --
1983 4 24 12 -9.6 82.7 965 0 0 Image --
1983 4 24 18 -9.7 82.9 963 0 0 Image --
1983 4 25 00 -9.9 83.3 960 0 0 Image --
1983 4 25 06 -10.2 84.0 960 0 0 Image --
1983 4 25 12 -10.7 84.7 960 0 0 Image --
1983 4 25 18 -11.1 85.5 960 0 0 Image --
1983 4 26 00 -11.5 86.2 960 0 0 Image --
1983 4 26 06 -11.9 87.4 960 0 0 Image --
1983 4 26 12 -12.6 88.6 960 0 0 Image --
1983 4 26 18 -13.0 89.9 960 0 0 Image --
1983 4 27 00 -13.2 90.8 960 0 0 Image --
1983 4 27 06 -13.6 91.7 960 0 0 Image --
1983 4 27 12 -14.2 92.7 960 0 0 Image --
1983 4 27 18 -14.9 93.7 960 0 0 Image --
1983 4 28 00 -15.1 94.0 960 0 0 Image --
1983 4 28 06 -15.4 94.5 964 0 0 Image --
1983 4 28 12 -15.6 94.7 968 0 0 Image --
1983 4 28 18 -15.9 95.0 972 0 0 Image --
1983 4 29 00 -16.2 95.3 976 0 0 Image --
1983 4 29 06 -16.6 95.4 980 0 0 Image --
1983 4 29 12 -16.7 96.0 986 0 0 Image --
1983 4 29 18 -16.4 95.9 989 0 0 Image --
1983 4 30 00 -16.1 95.3 994 0 0 Image --
1983 4 30 06 -15.9 94.8 996 0 0 Image --
1983 4 30 12 -15.7 94.3 998 0 0 Image --
1983 4 30 18 -15.6 93.8 1000 0 0 Image --
1983 5 1 00 -15.2 93.0 1003 0 0 Image --
1983 5 1 06 -14.7 92.3 1005 0 0 Image --
1983 5 1 12 -14.3 91.7 1005 0 0 Image --
1983 5 1 18 -13.9 91.3 1005 0 0 Image --
1983 5 2 00 -13.1 90.5 1006 0 0 Image --
1983 5 2 06 -11.9 88.5 1008 0 0 Image --
< Cyclone 198305 1983 Season Cyclone 198307 >

Help